地図

経路データ

SID SEASON NUMBER BASIN SUBBASIN NAME ISO_TIME NATURE LAT LON WMO_WIND WMO_PRES WMO_AGENCY TRACK_TYPE DIST2LAND LANDFALL IFLAG USA_AGENCY USA_ATCF_ID USA_LAT USA_LON USA_RECORD USA_STATUS USA_WIND USA_PRES USA_SSHS USA_R34_NE USA_R34_SE USA_R34_SW USA_R34_NW USA_R50_NE USA_R50_SE USA_R50_SW USA_R50_NW USA_R64_NE USA_R64_SE USA_R64_SW USA_R64_NW USA_POCI USA_ROCI USA_RMW USA_EYE TOKYO_LAT TOKYO_LON TOKYO_GRADE TOKYO_WIND TOKYO_PRES TOKYO_R50_DIR TOKYO_R50_LONG TOKYO_R50_SHORT TOKYO_R30_DIR TOKYO_R30_LONG TOKYO_R30_SHORT TOKYO_LAND CMA_LAT CMA_LON CMA_CAT CMA_WIND CMA_PRES HKO_LAT HKO_LON HKO_CAT HKO_WIND HKO_PRES NEWDELHI_LAT NEWDELHI_LON NEWDELHI_GRADE NEWDELHI_WIND NEWDELHI_PRES NEWDELHI_CI NEWDELHI_DP NEWDELHI_POCI REUNION_LAT REUNION_LON REUNION_TYPE REUNION_WIND REUNION_PRES REUNION_TNUM REUNION_CI REUNION_RMW REUNION_R34_NE REUNION_R34_SE REUNION_R34_SW REUNION_R34_NW REUNION_R50_NE REUNION_R50_SE REUNION_R50_SW REUNION_R50_NW REUNION_R64_NE REUNION_R64_SE REUNION_R64_SW REUNION_R64_NW BOM_LAT BOM_LON BOM_TYPE BOM_WIND BOM_PRES BOM_TNUM BOM_CI BOM_RMW BOM_R34_NE BOM_R34_SE BOM_R34_SW BOM_R34_NW BOM_R50_NE BOM_R50_SE BOM_R50_SW BOM_R50_NW BOM_R64_NE BOM_R64_SE BOM_R64_SW BOM_R64_NW BOM_ROCI BOM_POCI BOM_EYE BOM_POS_METHOD BOM_PRES_METHOD NADI_LAT NADI_LON NADI_CAT NADI_WIND NADI_PRES WELLINGTON_LAT WELLINGTON_LON WELLINGTON_WIND WELLINGTON_PRES DS824_LAT DS824_LON DS824_STAGE DS824_WIND DS824_PRES TD9636_LAT TD9636_LON TD9636_STAGE TD9636_WIND TD9636_PRES TD9635_LAT TD9635_LON TD9635_WIND TD9635_PRES TD9635_ROCI NEUMANN_LAT NEUMANN_LON NEUMANN_CLASS NEUMANN_WIND NEUMANN_PRES MLC_LAT MLC_LON MLC_CLASS MLC_WIND MLC_PRES USA_GUST BOM_GUST BOM_GUST_PER REUNION_GUST REUNION_GUST_PER USA_SEAHGT USA_SEARAD_NE USA_SEARAD_SE USA_SEARAD_SW USA_SEARAD_NW STORM_SPEED STORM_DIR
1955049S14134 1955 12 SI WA NOT_NAMED 1955-02-17 23:00:00 NR -13.8000 133.600 main 0 0 __________O___ -1 -13.8000 133.600 7 72 244
1955049S14134 1955 12 SI WA NOT_NAMED 1955-02-17 23:30:00 NR -14.0603 133.049 998 bom main 0 0 ______O___P___ -1 -14.3000 132.200 998 -13.9404 133.473 7 43 239
1955049S14134 1955 12 SI WA NOT_NAMED 1955-02-18 00:00:00 TS -14.1690 132.963 main 0 0 O_____P__OP___ jtwc_sh SH151955 -14.1000 133.400 -1 -14.3397 132.118 -14.3000 132.200 TC 35 998 -14.0806 133.345 7 18 220
1955049S14134 1955 12 SI WA NOT_NAMED 1955-02-18 03:00:00 TS -14.8786 132.340 main 0 0 P_____P___P___ SH151955 -15.0109 132.549 -1 -14.5782 131.618 TC -14.9054 132.566 7 19 225
1955049S14134 1955 12 SI WA NOT_NAMED 1955-02-18 06:00:00 TS -15.5390 131.568 main 0 0 O_____P___P___ jtwc_sh SH151955 -15.8000 131.700 -1 -14.8195 131.095 TC -15.6713 131.744 7 19 231
1955049S14134 1955 12 SI WA NOT_NAMED 1955-02-18 09:00:00 TS -16.1094 130.783 main 0 0 P_____P___P___ SH151955 -16.3816 130.844 -1 -15.0667 130.531 TC -16.3353 130.850 7 19 237
1955049S14134 1955 12 SI WA NOT_NAMED 1955-02-18 11:00:00 TS -16.3917 130.203 main 0 0 P_____P___O___ SH151955 -16.6740 130.231 -1 -15.2364 130.122 TC -16.7000 130.200 7 19 245
1955049S14134 1955 12 SI WA NOT_NAMED 1955-02-18 12:00:00 TS -16.5155 129.892 main 0 0 O_____P___P___ jtwc_sh SH151955 -16.8000 129.900 -1 -15.3230 129.905 TC -16.8546 129.856 7 21 250
1955049S14134 1955 12 SI WA NOT_NAMED 1955-02-18 15:00:00 TS -16.8570 128.857 main 0 0 P_____P___P___ SH151955 -17.1602 128.772 -1 -15.5911 129.199 TC -17.2136 128.767 7 21 254
1955049S14134 1955 12 SI WA NOT_NAMED 1955-02-18 18:00:00 TS -17.1024 127.765 main 0 0 O_____P___P___ jtwc_sh SH151955 -17.4000 127.600 -1 -15.8737 128.391 TC -17.4384 127.634 7 21 258
1955049S14134 1955 12 SI WA NOT_NAMED 1955-02-18 21:00:00 TS -17.2778 126.703 main 0 0 P_____P___P___ SH151955 -17.5520 126.512 -1 -16.1728 127.463 TC -17.5602 126.513 7 20 262
1955049S14134 1955 12 SI WA NOT_NAMED 1955-02-18 23:00:00 TS -17.3529 126.010 main 0 0 P_____P___O___ SH151955 -17.5941 125.828 -1 -16.3822 126.766 TC -17.6000 125.800 7 20 264
1955049S14134 1955 12 SI WA NOT_NAMED 1955-02-19 00:00:00 TS -17.3823 125.673 main 0 0 O_____P___P___ jtwc_sh SH151955 -17.6000 125.500 -1 -16.4900 126.392 TC -17.6217 125.471 7 19 265
1955049S14134 1955 12 SI WA NOT_NAMED 1955-02-19 01:00:00 TS -17.4051 125.340 992 bom main 0 0 P_____O___P___ SH151955 -17.5974 125.183 -1 -16.6000 126.000 992 TC -17.6333 125.150 7 19 267
1955049S14134 1955 12 SI WA NOT_NAMED 1955-02-19 03:00:00 TS -17.4298 124.685 main 0 0 P_____P___P___ SH151955 -17.5643 124.577 -1 -16.8243 125.165 990 TC -17.6318 124.529 7 19 268
1955049S14134 1955 12 SI WA NOT_NAMED 1955-02-19 06:00:00 TS -17.4480 123.716 main 0 0 O_____P___P___ jtwc_sh SH151955 -17.5000 123.700 -1 -17.1514 123.844 988 TC -17.5889 123.637 7 19 268
1955049S14134 1955 12 SI WA NOT_NAMED 1955-02-19 09:00:00 TS -17.4836 122.743 main 0 0 P_____P___P___ SH151955 -17.4846 122.800 -1 -17.4340 122.543 986 TC -17.5299 122.772 7 19 268
1955049S14134 1955 12 SI WA NOT_NAMED 1955-02-19 09:50:00 TS -17.4946 122.477 986 bom main 0 0 P_____O___P___ SH151955 -17.4858 122.550 -1 -17.5000 122.200 986 TC -17.5157 122.534 7 18 267
1955049S14134 1955 12 SI WA NOT_NAMED 1955-02-19 11:00:00 TS -17.5106 122.111 main 10 10 P_____P___O___ SH151955 -17.4914 122.200 -1 -17.5789 121.754 TC -17.5000 122.200 7 18 267
1955049S14134 1955 12 SI WA NOT_NAMED 1955-02-19 12:00:00 TS -17.5282 121.797 main 33 33 O_____P___P___ jtwc_sh SH151955 -17.5000 121.900 -1 -17.6372 121.387 TC -17.5038 121.899 7 18 266
1955049S14134 1955 12 SI WA NOT_NAMED 1955-02-19 15:00:00 TS -17.5888 120.867 main 127 127 P_____P___P___ SH151955 -17.5497 120.993 -1 -17.7676 120.357 TC -17.5276 120.999 7 17 266
1955049S14134 1955 12 SI WA NOT_NAMED 1955-02-19 18:00:00 TS -17.6408 119.967 main 211 211 O_____P___P___ jtwc_sh SH151955 -17.6000 120.100 -1 -17.8437 119.422 TC -17.5603 120.113 7 17 267
1955049S14134 1955 12 SI WA NOT_NAMED 1955-02-19 21:00:00 TS -17.6630 119.099 main 267 267 P_____P___P___ SH151955 -17.6147 119.228 -1 -17.8817 118.562 TC -17.5891 119.253 7 16 269
1955049S14134 1955 12 SI WA NOT_NAMED 1955-02-19 23:00:00 TS -17.6636 118.546 main 275 275 P_____P___O___ SH151955 -17.6082 118.669 -1 -17.8936 118.021 TC -17.6000 118.700 7 16 270
1955049S14134 1955 12 SI WA NOT_NAMED 1955-02-20 00:00:00 TS -17.6582 118.279 main 281 281 O_____P___P___ jtwc_sh SH151955 -17.6000 118.400 -1 -17.8972 117.759 TC -17.5939 118.437 7 15 272
1955049S14134 1955 12 SI WA NOT_NAMED 1955-02-20 01:00:00 TS -17.6488 118.019 980 bom main 302 302 P_____O___P___ SH151955 -17.5862 118.139 -1 -17.9000 117.500 980 TC -17.5855 118.179 7 15 273
1955049S14134 1955 12 SI WA NOT_NAMED 1955-02-20 03:00:00 TS -17.6255 117.510 main 319 319 P_____P___P___ SH151955 -17.5495 117.635 -1 -17.9149 116.969 TC -17.5639 117.676 7 14 273
1955049S14134 1955 12 SI WA NOT_NAMED 1955-02-20 06:00:00 TS -17.5898 116.772 main 335 335 O_____P___P___ jtwc_sh SH151955 -17.5000 116.900 -1 -17.9203 116.220 TC -17.5286 116.940 7 14 272
1955049S14134 1955 12 SI WA NOT_NAMED 1955-02-20 09:00:00 TS -17.5738 116.039 main 343 343 P_____P___P___ SH151955 -17.4846 116.157 -1 -17.9118 115.517 TC -17.5035 116.204 7 14 271
1955049S14134 1955 12 SI WA NOT_NAMED 1955-02-20 11:00:00 TS -17.5752 115.547 main 358 358 P_____P___O___ SH151955 -17.4915 115.656 -1 -17.9017 115.067 TC -17.5000 115.700 7 14 270
1955049S14134 1955 12 SI WA NOT_NAMED 1955-02-20 12:00:00 TS -17.5800 115.296 main 366 366 O_____P___P___ jtwc_sh SH151955 -17.5000 115.400 -1 -17.8960 114.846 TC -17.5039 115.434 7 15 268
1955049S14134 1955 12 SI WA NOT_NAMED 1955-02-20 15:00:00 TS -17.6075 114.532 main 407 407 P_____P___P___ SH151955 -17.5422 114.615 -1 -17.8796 114.195 TC -17.5316 114.618 7 15 267
1955049S14134 1955 12 SI WA NOT_NAMED 1955-02-20 18:00:00 TS -17.6498 113.748 main 452 443 O_____P___P___ jtwc_sh SH151955 -17.6000 113.800 -1 -17.8688 113.551 TC -17.5803 113.787 7 15 267
1955049S14134 1955 12 SI WA NOT_NAMED 1955-02-20 21:00:00 TS -17.6887 112.940 main 483 483 P_____P___P___ SH151955 -17.6423 112.950 -1 -17.8698 112.901 TC -17.6470 112.952 7 15 267
1955049S14134 1955 12 SI WA NOT_NAMED 1955-02-20 23:00:00 TS -17.7225 112.399 main 498 498 P_____P___O___ SH151955 -17.6775 112.380 -1 -17.8801 112.457 TC -17.7000 112.400 7 15 265
1955049S14134 1955 12 SI WA NOT_NAMED 1955-02-21 00:00:00 TS -17.7500 112.135 main 510 499 O_____P__OP___ jtwc_sh SH151955 -17.7000 112.100 -1 -17.8887 112.230 -17.9000 112.200 TC 85 960 -17.7238 112.129 7 15 263
1955049S14134 1955 12 SI WA NOT_NAMED 1955-02-21 01:00:00 TS -17.7818 111.875 960 bom main 508 508 P_____O__PP___ SH151955 -17.7274 111.828 -1 -17.9000 112.000 960 4 -17.9374 111.939 TC -17.7493 111.858 7 15 263
1955049S14134 1955 12 SI WA NOT_NAMED 1955-02-21 03:00:00 TS -17.8471 111.354 main 533 528 P_____P__PP___ SH151955 -17.7921 111.293 -1 -17.9309 111.528 -18.0111 111.417 TC -17.8055 111.320 7 15 262
1955049S14134 1955 12 SI WA NOT_NAMED 1955-02-21 06:00:00 TS -17.9530 110.573 main 562 562 O_____P__PP___ jtwc_sh SH151955 -17.9000 110.500 -1 -17.9960 110.790 -18.1191 110.632 TC -17.9029 110.518 7 15 262
1955049S14134 1955 12 SI WA NOT_NAMED 1955-02-21 09:00:00 TS -18.0458 109.778 main 618 618 P_____P__PP___ SH151955 -17.9848 109.692 -1 -18.0804 110.022 -18.2241 109.845 TC -18.0160 109.725 7 15 263
1955049S14134 1955 12 SI WA NOT_NAMED 1955-02-21 11:00:00 TS -18.1172 109.250 main 657 657 P_____P__PO___ SH151955 -18.0551 109.161 -1 -18.1455 109.496 -18.2923 109.320 TC -18.1000 109.200 7 15 261
1955049S14134 1955 12 SI WA NOT_NAMED 1955-02-21 12:00:00 TS -18.1590 108.987 main 666 666 O_____P__PP___ jtwc_sh SH151955 -18.1000 108.900 -1 -18.1803 109.229 -18.3258 109.057 TC -18.1478 108.938 7 15 258
1955049S14134 1955 12 SI WA NOT_NAMED 1955-02-21 15:00:00 TS -18.3199 108.215 main 727 727 P_____P__PP___ SH151955 -18.2995 108.150 -1 -18.2917 108.413 -18.4244 108.269 TC -18.3046 108.159 7 15 258
1955049S14134 1955 12 SI WA NOT_NAMED 1955-02-21 18:00:00 TS -18.4830 107.441 main 786 786 O_____P__PP___ jtwc_sh SH151955 -18.5000 107.400 -1 -18.4111 107.581 -18.5196 107.479 TC -18.4672 107.386 7 15 259
1955049S14134 1955 12 SI WA NOT_NAMED 1955-02-21 21:00:00 TS -18.6047 106.638 main 854 854 P_____P__PP___ SH151955 -18.6223 106.600 -1 -18.5347 106.736 -18.6115 106.690 TC -18.6168 106.614 7 15 262
1955049S14134 1955 12 SI WA NOT_NAMED 1955-02-21 23:00:00 TS -18.6726 106.095 main 893 893 P_____P__PO___ SH151955 -18.6775 106.064 -1 -18.6177 106.169 -18.6709 106.163 TC -18.7000 106.100 7 16 263
1955049S14134 1955 12 SI WA NOT_NAMED 1955-02-22 00:00:00 TS -18.7022 105.823 main 920 920 O_____P__OP___ jtwc_sh SH151955 -18.7000 105.800 -1 -18.6590 105.885 -18.7000 105.900 TC 85 960 -18.7310 105.840 7 15 264
1955049S14134 1955 12 SI WA NOT_NAMED 1955-02-22 01:00:00 TS -18.7293 105.558 960 bom main 939 939 P_____O___P___ SH151955 -18.7221 105.547 -1 -18.7000 105.600 960 TC -18.7582 105.580 7 15 265
1955049S14134 1955 12 SI WA NOT_NAMED 1955-02-22 03:00:00 TS -18.7684 105.053 main 980 980 P_________P___ SH151955 -18.7570 105.050 -1 TC -18.8027 105.061 7 14 266
1955049S14134 1955 12 SI WA NOT_NAMED 1955-02-22 06:00:00 TS -18.8125 104.296 main 1056 1056 O_________P___ jtwc_sh SH151955 -18.8000 104.300 -1 TC -18.8500 104.283 7 15 267
1955049S14134 1955 12 SI WA NOT_NAMED 1955-02-22 09:00:00 TS -18.8579 103.503 main 1128 1128 P_________P___ SH151955 -18.8498 103.500 -1 TC -18.8823 103.511 7 15 267
1955049S14134 1955 12 SI WA NOT_NAMED 1955-02-22 11:00:00 TS -18.8874 102.973 main 1176 1176 P_________O___ SH151955 -18.8832 102.964 -1 TC -18.9000 103.000 7 15 267
1955049S14134 1955 12 SI WA NOT_NAMED 1955-02-22 12:00:00 TS -18.9011 102.706 main 1205 1205 O_________P___ jtwc_sh SH151955 -18.9000 102.700 -1 TC -18.9044 102.726 7 15 267
1955049S14134 1955 12 SI WA NOT_NAMED 1955-02-22 15:00:00 TS -18.9453 101.926 main 1284 1284 P_________P___ SH151955 -18.9572 101.935 -1 TC -18.9094 101.899 7 14 267
1955049S14134 1955 12 SI WA NOT_NAMED 1955-02-22 18:00:00 TS -18.9796 101.177 main 1349 1349 O_________P___ jtwc_sh SH151955 -19.0000 101.200 -1 TC -18.9182 101.107 7 14 269
1955049S14134 1955 12 SI WA NOT_NAMED 1955-02-22 21:00:00 TS -18.9769 100.435 main 1429 1429 P_________P___ SH151955 -18.9851 100.447 -1 TC -18.9523 100.400 7 13 270
1955049S14134 1955 12 SI WA NOT_NAMED 1955-02-22 23:00:00 TS -18.9892 99.9972 main 1468 1468 P_________O___ SH151955 -18.9856 99.9963 -1 TC -19.0000 100.000 7 12 267
1955049S14134 1955 12 SI WA NOT_NAMED 1955-02-23 00:00:00 TS -19.0075 99.8068 main 1481 1481 O_________P___ jtwc_sh SH151955 -19.0000 99.8000 -1 -19.0301 99.8274 7 9 258
1955049S14134 1955 12 SI WA NOT_NAMED 1955-02-23 03:00:00 TS -19.1220 99.3438 main 1517 1517 P_________P___ SH151955 -19.1122 99.3251 -1 -19.1515 99.3999 7 8 248
1955049S14134 1955 12 SI WA NOT_NAMED 1955-02-23 06:00:00 TS -19.3048 99.0204 main 1551 1551 O_________P___ jtwc_sh SH151955 -19.3000 99.0000 -1 -19.3192 99.0814 7 7 232
1955049S14134 1955 12 SI WA NOT_NAMED 1955-02-23 09:00:00 TS -19.5287 98.7868 main 1573 1570 P_________P___ SH151955 -19.5273 98.7699 -1 -19.5326 98.8378 7 6 220
1955049S14134 1955 12 SI WA NOT_NAMED 1955-02-23 11:00:00 TS -19.7042 98.6671 main 1577 1577 P_________O___ SH151955 -19.7056 98.6561 -1 -19.7000 98.7000 7 6 213
1955049S14134 1955 12 SI WA NOT_NAMED 1955-02-23 12:00:00 TS -19.7964 98.6023 main 1585 1582 O_________P___ jtwc_sh SH151955 -19.8000 98.6000 -1 -19.7857 98.6094 7 7 216
1955049S14134 1955 12 SI WA NOT_NAMED 1955-02-23 15:00:00 TS -20.0825 98.3801 main 1597 1597 P_________P___ SH151955 -20.0850 98.3850 -1 -20.0749 98.3654 7 7 212
1955049S14134 1955 12 SI WA NOT_NAMED 1955-02-23 18:00:00 TS -20.4006 98.1932 main 1610 1608 O_________P___ jtwc_sh SH151955 -20.4000 98.2000 -1 -20.4025 98.1730 7 7 205
1955049S14134 1955 12 SI WA NOT_NAMED 1955-02-23 21:00:00 TS -20.7403 98.0580 main 1614 1612 P_________P___ SH151955 -20.7350 98.0625 -1 -20.7561 98.0442 7 7 196
1955049S14134 1955 12 SI WA NOT_NAMED 1955-02-23 23:00:00 TS -20.9812 98.0083 main 1619 1617 P_________O___ SH151955 -20.9750 98.0110 -1 -21.0000 98.0000 7 7 189
1955049S14134 1955 12 SI WA NOT_NAMED 1955-02-24 00:00:00 TS -21.1046 97.9966 main 1617 1608 O_________P___ jtwc_sh SH151955 -21.1000 98.0000 -1 -21.1182 97.9864 7 8 0
1955049S14134 1955 12 SI WA NOT_NAMED 1955-02-24 03:00:00 TS -21.4960 98.0146 main 1608 1587 P_________P___ SH151955 -21.5000 98.0199 -1 -21.4840 97.9988 7 8 173
1955049S14134 1955 12 SI WA NOT_NAMED 1955-02-24 06:00:00 TS -21.8904 98.0942 main 1587 1570 O_________P___ jtwc_sh SH151955 -21.9000 98.1000 -1 -21.8616 98.0766 7 8 168
1955049S14134 1955 12 SI WA NOT_NAMED 1955-02-24 09:00:00 TS -22.2486 98.1834 main 1570 1553 P_________P___ SH151955 -22.2500 98.1777 -1 -22.2447 98.2009 7 7 165
1955049S14134 1955 12 SI WA NOT_NAMED 1955-02-24 11:00:00 TS -22.4852 98.2646 main 1553 1551 P_________O___ SH151955 -22.4802 98.2527 -1 -22.5000 98.3000 7 8 160
1955049S14134 1955 12 SI WA NOT_NAMED 1955-02-24 12:00:00 TS -22.6083 98.3161 main 1551 1523 O_________P___ jtwc_sh SH151955 -22.6000 98.3000 -1 -22.6270 98.3524 7 8 157
1955049S14134 1955 12 SI WA NOT_NAMED 1955-02-24 15:00:00 TS -22.9946 98.4966 main 1523 1497 P_________P___ SH151955 -22.9876 98.4822 -1 -23.0051 98.5182 7 9 156
1955049S14134 1955 12 SI WA NOT_NAMED 1955-02-24 18:00:00 TS -23.3899 98.6970 main 1497 1472 O_________P___ jtwc_sh SH151955 -23.4000 98.7000 -1 -23.3798 98.6939 7 8 155
1955049S14134 1955 12 SI WA NOT_NAMED 1955-02-24 21:00:00 NR -23.7523 98.8763 main 1471 1457 __________P___ SH151955 -1 -23.7523 98.8763 7 8 156
1955049S14134 1955 12 SI WA NOT_NAMED 1955-02-24 23:00:00 NR -24.0000 99.0000 main 1457 __________O___ SH151955 -1 -24.0000 99.0000 7 8 156

IBTrACS Databaseについて

本データベースは、米国NOAAが公開する1842年以降の世界の熱帯低気圧のベストトラックデータアーカイブInternational Best Track Archive for Climate Stewardship (IBTrACS)を、ウェブで閲覧しやすい形式に変換したものです。

最終更新日:2021-10-08